createdAt,value
2018-12-03T00:01:06.110Z,16.37
2018-12-03T00:03:35.025Z,17.50
2018-12-03T00:06:02.806Z,15.43
2018-12-03T00:08:30.530Z,16.67
2018-12-03T00:10:58.251Z,17.60
2018-12-03T00:13:25.879Z,16.20
2018-12-03T00:15:55.461Z,17.00
2018-12-03T00:18:23.115Z,17.60
2018-12-03T00:20:50.733Z,16.80
2018-12-03T00:23:18.488Z,18.57
2018-12-03T00:25:46.122Z,17.53
2018-12-03T00:28:14.459Z,17.33
2018-12-03T00:30:42.093Z,17.17
2018-12-03T00:33:09.981Z,15.77
2018-12-03T00:35:38.616Z,17.57
2018-12-03T00:38:06.274Z,18.80
2018-12-03T00:40:33.962Z,17.87
2018-12-03T00:43:01.813Z,18.53
2018-12-03T00:45:29.385Z,17.60
2018-12-03T00:47:57.074Z,18.87
2018-12-03T00:50:24.654Z,16.80
2018-12-03T00:52:52.424Z,17.30
2018-12-03T00:55:20.102Z,18.50
2018-12-03T00:57:48.365Z,18.27
2018-12-03T01:00:16.102Z,18.43
2018-12-03T01:02:43.845Z,17.13
2018-12-03T01:05:11.564Z,17.93
2018-12-03T01:07:39.277Z,19.50
2018-12-03T01:10:09.280Z,18.70
2018-12-03T01:12:37.118Z,19.90
2018-12-03T01:15:07.149Z,17.47
2018-12-03T01:17:34.814Z,20.00
2018-12-03T01:20:02.758Z,19.37
2018-12-03T01:22:30.409Z,18.40
2018-12-03T01:24:58.038Z,19.20
2018-12-03T01:27:25.699Z,19.03
2018-12-03T01:29:53.326Z,18.83
2018-12-03T01:32:20.991Z,18.27
2018-12-03T01:34:48.610Z,20.50
2018-12-03T01:37:16.194Z,18.77
2018-12-03T01:39:43.938Z,20.00
2018-12-03T01:42:11.531Z,18.23
2018-12-03T01:44:39.236Z,20.77
2018-12-03T01:47:07.041Z,19.00
2018-12-03T01:49:34.606Z,20.10
2018-12-03T01:52:02.357Z,19.70
2018-12-03T01:54:29.997Z,19.00
2018-12-03T01:56:57.570Z,20.80
2018-12-03T01:59:25.209Z,20.63
2018-12-03T02:01:52.814Z,19.90
2018-12-03T02:04:20.497Z,19.30
2018-12-03T02:06:48.183Z,21.30
2018-12-03T02:09:15.812Z,18.90
2018-12-03T02:11:43.434Z,20.07
2018-12-03T02:14:11.058Z,21.43
2018-12-03T02:16:38.661Z,21.83
2018-12-03T02:19:06.374Z,19.90
2018-12-03T02:21:35.542Z,19.57
2018-12-03T02:24:03.184Z,20.30
2018-12-03T02:26:30.872Z,18.37
2018-12-03T02:28:58.491Z,17.83
2018-12-03T02:31:26.079Z,19.77
2018-12-03T02:33:53.660Z,17.83
2018-12-03T02:36:21.309Z,17.93
2018-12-03T02:38:48.963Z,20.40
2018-12-03T02:41:16.751Z,19.50
2018-12-03T02:43:44.452Z,18.60
2018-12-03T02:46:12.110Z,18.47
2018-12-03T02:48:39.713Z,19.50
2018-12-03T02:51:07.347Z,19.13
2018-12-03T02:53:35.330Z,18.50
2018-12-03T02:56:02.954Z,17.47
2018-12-03T02:58:30.595Z,17.70
2018-12-03T03:00:58.224Z,19.77
2018-12-03T03:03:25.874Z,18.20
2018-12-03T03:05:53.517Z,19.40
2018-12-03T03:08:21.278Z,20.73
2018-12-03T03:10:49.060Z,17.93
2018-12-03T03:13:16.666Z,19.20
2018-12-03T03:15:44.323Z,19.70
2018-12-03T03:18:12.025Z,19.20
2018-12-03T03:20:39.709Z,20.37
2018-12-03T03:23:07.407Z,19.63
2018-12-03T03:25:35.913Z,19.70
2018-12-03T03:28:03.546Z,18.63
2018-12-03T03:30:31.203Z,19.20
2018-12-03T03:32:58.882Z,20.37
2018-12-03T03:35:26.644Z,20.90
2018-12-03T03:37:54.253Z,17.97
2018-12-03T03:40:21.870Z,17.90
2018-12-03T03:42:49.587Z,17.30
2018-12-03T03:45:21.645Z,18.50
2018-12-03T03:47:49.312Z,18.53
2018-12-03T03:50:16.923Z,17.27
2018-12-03T03:52:44.527Z,17.00
2018-12-03T03:55:12.259Z,16.63
2018-12-03T03:57:39.900Z,17.50
2018-12-03T04:00:11.736Z,16.27
2018-12-03T04:02:39.491Z,16.30
2018-12-03T04:05:09.301Z,17.17
2018-12-03T04:07:36.989Z,16.10
2018-12-03T04:10:07.634Z,17.33
2018-12-03T04:12:35.243Z,19.03
2018-12-03T04:15:03.402Z,15.73
2018-12-03T04:17:31.139Z,15.93
2018-12-03T04:19:58.821Z,16.63
2018-12-03T04:22:26.483Z,15.77
2018-12-03T04:24:54.129Z,17.20
2018-12-03T04:27:21.842Z,16.90
2018-12-03T04:29:49.575Z,18.13
2018-12-03T04:32:17.188Z,16.50
2018-12-03T04:34:44.976Z,17.10
2018-12-03T04:37:12.794Z,16.27
2018-12-03T04:39:40.406Z,15.73
2018-12-03T04:42:08.086Z,16.17
2018-12-03T04:44:35.729Z,15.70
2018-12-03T04:47:03.334Z,16.63
2018-12-03T04:49:31.075Z,14.57
2018-12-03T04:51:58.695Z,14.70
2018-12-03T04:54:26.450Z,13.30
2018-12-03T04:56:54.122Z,13.90
2018-12-03T04:59:21.738Z,14.10
2018-12-03T05:01:49.403Z,14.30
2018-12-03T05:04:16.982Z,13.83
2018-12-03T05:06:44.614Z,13.70
2018-12-03T05:09:12.309Z,15.00
2018-12-03T05:11:40.096Z,13.10
2018-12-03T05:14:07.651Z,12.53
2018-12-03T05:16:35.412Z,13.73
2018-12-03T05:19:03.354Z,13.20
2018-12-03T05:21:38.107Z,12.30
2018-12-03T05:24:05.864Z,13.40
2018-12-03T05:26:33.769Z,13.67
2018-12-03T05:29:01.741Z,12.90
2018-12-03T05:31:29.377Z,12.90
2018-12-03T05:33:57.302Z,11.00
2018-12-03T05:36:25.134Z,11.97
2018-12-03T05:38:52.833Z,11.70
2018-12-03T05:41:20.467Z,12.37
2018-12-03T05:43:48.185Z,11.00
2018-12-03T05:46:15.943Z,12.83
2018-12-03T05:48:43.572Z,12.17
2018-12-03T05:51:11.334Z,12.70
2018-12-03T05:53:38.931Z,13.10
2018-12-03T05:56:06.579Z,14.00
2018-12-03T05:58:34.213Z,12.30
2018-12-03T06:01:02.074Z,12.63
2018-12-03T06:03:29.703Z,12.93
2018-12-03T06:05:57.401Z,12.63
2018-12-03T06:08:24.992Z,13.30
2018-12-03T06:10:52.595Z,12.00
2018-12-03T06:13:20.210Z,12.30
2018-12-03T06:15:47.868Z,13.10
2018-12-03T06:18:15.634Z,13.93
2018-12-03T06:20:43.313Z,14.20
2018-12-03T06:23:11.186Z,14.17
2018-12-03T06:25:38.843Z,14.13
2018-12-03T06:28:06.554Z,14.60
2018-12-03T06:30:34.158Z,14.30
2018-12-03T06:33:01.774Z,15.77
2018-12-03T06:35:29.378Z,15.33
2018-12-03T06:37:57.032Z,15.40
2018-12-03T06:40:26.981Z,15.10
2018-12-03T06:42:54.671Z,14.40
2018-12-03T06:45:23.123Z,15.00
2018-12-03T06:47:54.469Z,14.63
2018-12-03T06:50:22.207Z,13.23
2018-12-03T06:52:49.873Z,15.00
2018-12-03T06:55:17.490Z,13.30
2018-12-03T06:57:45.299Z,14.63
2018-12-03T07:00:16.353Z,14.07
2018-12-03T07:02:44.156Z,14.27
2018-12-03T07:05:12.239Z,13.80
2018-12-03T07:07:40.554Z,14.30
2018-12-03T07:10:15.705Z,15.70
2018-12-03T07:12:43.844Z,14.20
2018-12-03T07:15:13.431Z,12.13
2018-12-03T07:17:41.191Z,13.63
2018-12-03T07:20:10.286Z,15.40
2018-12-03T07:22:38.315Z,13.97
2018-12-03T07:25:07.617Z,15.53
2018-12-03T07:27:36.622Z,16.73
2018-12-03T07:30:13.032Z,15.63
2018-12-03T07:32:40.828Z,15.17
2018-12-03T07:35:08.499Z,13.47
2018-12-03T07:37:36.773Z,12.73
2018-12-03T07:40:06.156Z,12.50
2018-12-03T07:42:33.781Z,11.20
2018-12-03T07:45:01.784Z,9.83
2018-12-03T07:47:29.384Z,11.10
2018-12-03T07:49:56.988Z,10.20
2018-12-03T07:52:24.652Z,8.67
2018-12-03T07:54:52.283Z,10.53
2018-12-03T07:57:19.968Z,9.20
2018-12-03T07:59:47.840Z,9.77
2018-12-03T08:02:15.572Z,9.80
2018-12-03T08:04:43.304Z,10.17
2018-12-03T08:07:11.029Z,10.80
2018-12-03T08:09:38.647Z,9.57
2018-12-03T08:12:06.321Z,9.43
2018-12-03T08:14:34.042Z,8.43
2018-12-03T08:17:01.855Z,9.53
2018-12-03T08:19:29.536Z,9.30
2018-12-03T08:21:57.198Z,8.30
2018-12-03T08:24:24.850Z,8.03
2018-12-03T08:26:52.525Z,8.20
2018-12-03T08:29:20.220Z,7.23
2018-12-03T08:31:47.827Z,8.30
2018-12-03T08:34:15.430Z,6.90
2018-12-03T08:36:43.395Z,6.60
2018-12-03T08:39:11.170Z,6.00
2018-12-03T08:41:38.967Z,6.57
2018-12-03T08:44:06.867Z,7.67
2018-12-03T08:46:34.525Z,7.00
2018-12-03T08:49:03.312Z,6.90
2018-12-03T08:51:31.342Z,8.50
2018-12-03T08:53:59.014Z,8.90
2018-12-03T08:56:26.632Z,7.30
2018-12-03T08:58:54.362Z,7.43
2018-12-03T09:01:22.611Z,6.60
2018-12-03T09:03:58.798Z,6.17
2018-12-03T09:06:26.374Z,5.73
2018-12-03T09:08:54.164Z,6.07
2018-12-03T09:11:22.804Z,4.97
2018-12-03T09:13:50.593Z,5.90
2018-12-03T09:16:18.319Z,5.73
2018-12-03T09:18:46.089Z,5.80
2018-12-03T09:21:16.639Z,5.40
2018-12-03T09:23:45.740Z,5.33
2018-12-03T09:26:14.034Z,5.43
2018-12-03T09:28:41.694Z,4.50
2018-12-03T09:31:10.946Z,5.33
2018-12-03T09:33:38.646Z,5.60
2018-12-03T09:36:06.395Z,5.60
2018-12-03T09:38:45.620Z,5.07
2018-12-03T09:41:13.423Z,4.90
2018-12-03T09:43:42.727Z,4.87
2018-12-03T09:46:10.472Z,6.97
2018-12-03T09:48:38.076Z,4.60
2018-12-03T09:51:05.866Z,4.60
2018-12-03T09:53:33.413Z,4.90
2018-12-03T09:56:00.986Z,4.90
2018-12-03T09:58:28.565Z,5.00
2018-12-03T10:00:56.241Z,6.07
2018-12-03T10:03:26.997Z,5.43
2018-12-03T10:05:59.965Z,6.53
2018-12-03T10:08:29.660Z,5.47
2018-12-03T10:10:59.395Z,5.33
2018-12-03T10:13:28.152Z,4.73
2018-12-03T10:15:55.848Z,4.80
2018-12-03T10:18:23.761Z,5.70
2018-12-03T10:20:53.156Z,4.90
2018-12-03T10:23:20.902Z,4.80
2018-12-03T10:25:51.031Z,5.27
2018-12-03T10:28:18.961Z,6.40
2018-12-03T10:30:46.680Z,5.77
2018-12-03T10:33:21.355Z,5.30
2018-12-03T10:35:49.300Z,6.13
2018-12-03T10:38:20.536Z,7.80
2018-12-03T10:40:58.094Z,6.23
2018-12-03T10:43:26.009Z,6.30
2018-12-03T10:45:53.646Z,5.17
2018-12-03T10:48:21.459Z,5.83
2018-12-03T10:50:50.315Z,5.93
2018-12-03T10:53:23.665Z,7.03
2018-12-03T10:55:51.698Z,6.00
2018-12-03T10:58:19.353Z,6.73
2018-12-03T11:00:52.772Z,7.10
2018-12-03T11:03:25.981Z,7.50
2018-12-03T11:05:59.326Z,8.03
2018-12-03T11:08:26.979Z,5.83
2018-12-03T11:10:55.069Z,7.03
2018-12-03T11:13:22.824Z,8.37
2018-12-03T11:15:50.541Z,7.60
2018-12-03T11:18:19.322Z,6.70
2018-12-03T11:20:46.967Z,7.17
2018-12-03T11:23:18.698Z,8.00
2018-12-03T11:25:46.332Z,7.37
2018-12-03T11:28:15.091Z,7.97
2018-12-03T11:30:50.713Z,8.17
2018-12-03T11:33:22.563Z,7.97
2018-12-03T11:35:51.038Z,10.20
2018-12-03T11:39:26.158Z,9.10
2018-12-03T11:41:58.956Z,8.23
2018-12-03T11:44:26.584Z,7.93
2018-12-03T11:46:54.235Z,7.37
2018-12-03T11:49:22.793Z,8.90
2018-12-03T11:51:50.356Z,8.63
2018-12-03T11:54:18.006Z,8.30
2018-12-03T11:56:45.655Z,8.50
2018-12-03T11:59:13.293Z,7.70
2018-12-03T12:01:41.019Z,8.50
2018-12-03T12:04:08.626Z,9.60
2018-12-03T12:06:36.247Z,10.00
2018-12-03T12:09:07.446Z,10.00
2018-12-03T12:11:35.106Z,8.57
2018-12-03T12:14:02.886Z,8.90
2018-12-03T12:16:30.586Z,9.63
2018-12-03T12:18:58.297Z,10.10
2018-12-03T12:21:25.948Z,10.20
2018-12-03T12:23:53.498Z,10.60
2018-12-03T12:26:21.245Z,11.10
2018-12-03T12:28:49.010Z,11.33
2018-12-03T12:31:23.393Z,11.20
2018-12-03T12:33:51.327Z,11.30
2018-12-03T12:36:19.058Z,11.53
2018-12-03T12:38:46.702Z,9.83
2018-12-03T12:41:14.481Z,10.13
2018-12-03T12:43:42.132Z,10.63
2018-12-03T12:46:13.071Z,11.50
2018-12-03T12:48:40.771Z,10.57
2018-12-03T12:51:08.465Z,11.70
2018-12-03T12:53:36.887Z,10.10
2018-12-03T12:56:04.947Z,10.40
2018-12-03T12:58:32.739Z,9.57
2018-12-03T13:01:00.443Z,9.43
2018-12-03T13:03:28.171Z,9.70
2018-12-03T13:05:56.651Z,9.60
2018-12-03T13:08:23.499Z,8.70
2018-12-03T13:10:51.100Z,8.73
2018-12-03T13:13:18.689Z,8.80
2018-12-03T13:15:46.466Z,8.50
2018-12-03T13:18:14.029Z,9.33
2018-12-03T13:20:41.710Z,9.57
2018-12-03T13:23:09.307Z,9.43
2018-12-03T13:25:37.810Z,9.13
2018-12-03T13:28:05.769Z,8.70
2018-12-03T13:30:33.356Z,9.80
2018-12-03T13:33:01.025Z,9.50
2018-12-03T13:35:29.250Z,8.07
2018-12-03T13:37:56.336Z,9.40
2018-12-03T13:40:24.058Z,9.17
2018-12-03T13:42:52.001Z,9.03
2018-12-03T13:45:21.502Z,9.83
2018-12-03T13:47:49.613Z,11.83
2018-12-03T13:50:18.325Z,9.43
2018-12-03T13:52:46.325Z,10.67
2018-12-03T13:55:16.609Z,9.27
2018-12-03T13:57:44.269Z,10.07
2018-12-03T14:00:19.472Z,9.70
2018-12-03T14:02:54.442Z,10.87
2018-12-03T14:05:22.192Z,12.97
2018-12-03T14:08:00.201Z,8.50
2018-12-03T14:11:38.395Z,8.60
2018-12-03T14:16:24.853Z,8.83
2018-12-03T14:18:56.077Z,9.07
2018-12-03T14:21:29.874Z,9.43
2018-12-03T14:23:59.182Z,9.10
2018-12-03T14:26:28.057Z,9.03
2018-12-03T14:28:55.815Z,9.00
2018-12-03T14:31:23.529Z,9.23
2018-12-03T14:33:51.293Z,8.93
2018-12-03T14:36:19.020Z,8.50
2018-12-03T14:38:46.749Z,8.50
2018-12-03T14:41:14.526Z,9.40
2018-12-03T14:43:42.067Z,9.27
2018-12-03T14:46:10.276Z,8.30
2018-12-03T14:48:38.249Z,8.83
2018-12-03T14:51:05.970Z,8.37
2018-12-03T14:53:33.549Z,8.13
2018-12-03T14:56:22.416Z,7.83
2018-12-03T14:58:49.971Z,6.70
2018-12-03T15:01:19.446Z,7.93
2018-12-03T15:03:46.969Z,8.93
2018-12-03T15:06:14.654Z,8.77
2018-12-03T15:08:42.269Z,8.97
2018-12-03T15:11:09.853Z,8.50
2018-12-03T15:13:39.013Z,8.13
2018-12-03T15:16:06.571Z,9.27
2018-12-03T15:18:34.334Z,9.00
2018-12-03T15:21:01.917Z,8.50
2018-12-03T15:23:29.523Z,8.73
2018-12-03T15:25:57.181Z,8.83
2018-12-03T15:28:24.819Z,8.90
2018-12-03T15:30:52.470Z,8.40
2018-12-03T15:33:20.102Z,8.40
2018-12-03T15:35:47.718Z,8.47
2018-12-03T15:38:15.328Z,9.20
2018-12-03T15:40:43.010Z,8.40
2018-12-03T15:43:10.679Z,8.83
2018-12-03T15:45:38.934Z,11.13
2018-12-03T15:48:06.670Z,9.47
2018-12-03T15:50:34.378Z,9.57
2018-12-03T15:53:02.029Z,8.97
2018-12-03T15:55:29.750Z,9.60
2018-12-03T15:57:57.327Z,9.47
2018-12-03T16:00:24.949Z,9.67
2018-12-03T16:02:52.509Z,11.27
2018-12-03T16:05:23.007Z,9.20
2018-12-03T16:07:50.603Z,9.30
2018-12-03T16:10:18.221Z,9.87
2018-12-03T16:12:46.727Z,10.97
2018-12-03T16:15:14.388Z,9.80
2018-12-03T16:17:41.967Z,10.30
2018-12-03T16:20:10.315Z,10.00
2018-12-03T16:22:38.119Z,8.90
2018-12-03T16:25:06.997Z,9.43
2018-12-03T16:27:34.571Z,9.77
2018-12-03T16:30:02.957Z,9.53
2018-12-03T16:32:30.550Z,9.23
2018-12-03T16:34:58.305Z,11.27
2018-12-03T16:37:25.933Z,10.20
2018-12-03T16:39:53.511Z,9.20
2018-12-03T16:42:21.279Z,9.30
2018-12-03T16:44:48.946Z,9.07
2018-12-03T16:47:16.564Z,8.50
2018-12-03T16:49:44.206Z,9.60
2018-12-03T16:52:12.299Z,9.67
2018-12-03T16:54:39.861Z,10.00
2018-12-03T16:57:07.577Z,8.87
2018-12-03T16:59:35.232Z,9.13
2018-12-03T17:02:02.937Z,9.27
2018-12-03T17:04:30.679Z,9.20
2018-12-03T17:06:58.286Z,8.80
2018-12-03T17:10:12.953Z,8.80
2018-12-03T17:12:42.524Z,8.93
2018-12-03T17:15:10.165Z,9.00
2018-12-03T17:17:40.133Z,11.07
2018-12-03T17:21:33.233Z,9.50
2018-12-03T17:24:08.310Z,8.70
2018-12-03T17:26:35.981Z,9.43
2018-12-03T17:29:03.655Z,8.43
2018-12-03T17:31:31.375Z,9.63
2018-12-03T17:33:59.216Z,10.10
2018-12-03T17:36:26.974Z,9.50
2018-12-03T17:38:54.667Z,8.60
2018-12-03T17:41:22.345Z,8.80
2018-12-03T17:43:50.074Z,9.07
2018-12-03T17:46:17.660Z,9.10
2018-12-03T17:48:52.184Z,8.60
2018-12-03T17:51:19.789Z,8.77
2018-12-03T17:53:47.456Z,10.80
2018-12-03T17:56:15.035Z,9.43
2018-12-03T17:58:42.579Z,11.77
2018-12-03T18:01:10.370Z,8.40
2018-12-03T18:03:38.580Z,11.70
2018-12-03T18:06:06.203Z,11.33
2018-12-03T18:08:35.517Z,10.37
2018-12-03T18:11:03.250Z,10.90
2018-12-03T18:13:37.898Z,9.57
2018-12-03T18:16:06.571Z,8.93
2018-12-03T18:18:34.110Z,10.20
2018-12-03T18:21:01.635Z,9.97
2018-12-03T18:23:29.225Z,9.50
2018-12-03T18:25:56.741Z,9.17
2018-12-03T18:28:24.306Z,10.83
2018-12-03T18:30:52.030Z,10.73
2018-12-03T18:33:19.900Z,10.90
2018-12-03T18:35:47.883Z,11.60
2018-12-03T18:38:32.430Z,11.90
2018-12-03T18:41:03.358Z,12.77
2018-12-03T18:43:30.506Z,12.03
2018-12-03T18:45:58.023Z,12.37
2018-12-03T18:48:25.838Z,12.20
2018-12-03T18:50:54.375Z,13.60
2018-12-03T18:53:24.245Z,11.80
2018-12-03T18:55:52.086Z,12.30
2018-12-03T18:58:29.020Z,14.27
2018-12-03T19:00:56.613Z,11.80
2018-12-03T19:03:24.374Z,10.67
2018-12-03T19:05:51.974Z,12.80
2018-12-03T19:08:20.066Z,13.37
2018-12-03T19:10:47.770Z,13.00
2018-12-03T19:13:15.379Z,14.33
2018-12-03T19:15:44.639Z,12.00
2018-12-03T19:18:12.454Z,12.47
2018-12-03T19:20:40.067Z,14.37
2018-12-03T19:23:08.219Z,12.40
2018-12-03T19:25:35.865Z,13.27
2018-12-03T19:28:03.633Z,13.00
2018-12-03T19:30:31.335Z,13.40
2018-12-03T19:33:00.886Z,13.10
2018-12-03T19:35:32.426Z,11.50
2018-12-03T19:38:02.009Z,11.80
2018-12-03T19:40:29.622Z,13.73
2018-12-03T19:42:57.267Z,12.90
2018-12-03T19:45:24.898Z,13.07
2018-12-03T19:47:52.894Z,13.70
2018-12-03T19:50:20.550Z,12.70
2018-12-03T19:52:50.500Z,13.30
2018-12-03T19:55:18.341Z,14.10
2018-12-03T19:57:49.321Z,14.83
2018-12-03T20:00:17.441Z,15.10
2018-12-03T20:02:46.300Z,16.90
2018-12-03T20:05:16.915Z,14.23
2018-12-03T20:07:45.364Z,15.30
2018-12-03T20:10:13.049Z,15.43
2018-12-03T20:12:40.799Z,15.10
2018-12-03T20:15:08.964Z,15.37
2018-12-03T20:17:40.297Z,15.67
2018-12-03T20:20:12.291Z,16.57
2018-12-03T20:23:00.100Z,15.23
2018-12-03T20:25:36.042Z,16.90
2018-12-03T20:28:08.617Z,18.13
2018-12-03T20:30:49.866Z,16.33
2018-12-03T20:33:21.418Z,15.57
2018-12-03T20:38:00.345Z,17.37
2018-12-03T20:41:33.398Z,14.57
2018-12-03T20:44:12.420Z,5.37
2018-12-03T20:46:51.236Z,3.60
2018-12-03T20:49:30.685Z,3.53
2018-12-03T20:52:04.625Z,3.03
2018-12-03T20:54:32.273Z,2.60
2018-12-03T20:56:59.941Z,2.40
2018-12-03T20:59:27.551Z,2.43
2018-12-03T21:01:55.116Z,2.37
2018-12-03T21:04:23.975Z,2.63
2018-12-03T21:06:51.683Z,2.73
2018-12-03T21:09:19.398Z,2.87
2018-12-03T21:11:47.049Z,2.60
2018-12-03T21:14:19.986Z,3.00
2018-12-03T21:16:44.694Z,2.73
2018-12-03T21:19:12.270Z,3.67
2018-12-03T21:21:41.263Z,3.63
2018-12-03T21:24:08.854Z,3.13
2018-12-03T21:26:36.634Z,4.00
2018-12-03T21:29:04.196Z,4.30
2018-12-03T21:31:31.927Z,3.73
2018-12-03T21:33:59.553Z,3.03
2018-12-03T21:36:27.264Z,2.60
2018-12-03T21:38:55.052Z,2.50
2018-12-03T21:41:22.606Z,2.47
2018-12-03T21:43:50.631Z,5.60
2018-12-03T21:46:18.279Z,2.43
2018-12-03T21:48:46.720Z,2.20
2018-12-03T21:51:14.396Z,2.50
2018-12-03T21:53:43.728Z,2.20
2018-12-03T21:56:11.536Z,3.33
2018-12-03T21:58:39.154Z,2.37
2018-12-03T22:01:06.694Z,3.97
2018-12-03T22:03:34.426Z,3.43
2018-12-03T22:06:01.956Z,2.77
2018-12-03T22:08:29.809Z,2.83
2018-12-03T22:10:57.474Z,2.23
2018-12-03T22:13:25.049Z,5.40
2018-12-03T22:15:52.637Z,2.90
2018-12-03T22:18:20.457Z,3.70
2018-12-03T22:20:48.029Z,3.03
2018-12-03T22:23:15.741Z,2.50
2018-12-03T22:25:43.599Z,2.83
2018-12-03T22:28:11.354Z,2.53
2018-12-03T22:30:39.032Z,2.30
2018-12-03T22:33:06.771Z,2.30
2018-12-03T22:35:34.546Z,2.10
2018-12-03T22:38:02.117Z,2.67
2018-12-03T22:40:29.657Z,2.47
2018-12-03T22:42:57.234Z,1.90
2018-12-03T22:45:24.878Z,2.10
2018-12-03T22:47:52.443Z,1.80
2018-12-03T22:50:20.022Z,1.57
2018-12-03T22:52:47.565Z,1.90
2018-12-03T22:55:15.286Z,1.80
2018-12-03T22:57:42.950Z,2.53
2018-12-03T23:00:20.453Z,2.00
2018-12-03T23:02:50.102Z,2.50
2018-12-03T23:05:17.645Z,2.03
2018-12-03T23:07:45.284Z,1.70
2018-12-03T23:10:12.940Z,4.47
2018-12-03T23:12:40.783Z,2.20
2018-12-03T23:15:08.574Z,2.30
2018-12-03T23:17:36.173Z,2.33
2018-12-03T23:20:04.063Z,1.57
2018-12-03T23:22:31.622Z,1.50
2018-12-03T23:24:59.283Z,2.77
2018-12-03T23:27:26.840Z,1.90
2018-12-03T23:29:54.403Z,2.17
2018-12-03T23:32:21.956Z,2.20
2018-12-03T23:34:49.540Z,1.70
2018-12-03T23:37:17.320Z,2.23
2018-12-03T23:42:37.681Z,2.10
2018-12-03T23:45:05.770Z,1.70
2018-12-03T23:47:33.439Z,2.00
2018-12-03T23:50:00.917Z,2.17
2018-12-03T23:52:28.421Z,2.20
2018-12-03T23:54:55.961Z,2.27
2018-12-03T23:57:23.716Z,3.07
2018-12-03T23:59:51.349Z,3.03
